createdAt,value
2022-11-12T12:24:20.639Z,300954.38
2022-11-12T12:25:20.538Z,300954.38
2022-11-12T12:26:20.508Z,300954.38
2022-11-12T12:27:20.511Z,300954.38
2022-11-12T12:28:20.471Z,300954.38
2022-11-12T12:29:20.454Z,300954.38
2022-11-12T12:30:20.434Z,300954.38
2022-11-12T12:31:20.419Z,300954.38
2022-11-12T12:32:24.084Z,300954.38
2022-11-12T12:33:20.387Z,300954.38
2022-11-12T12:34:20.358Z,300954.38
2022-11-12T12:35:20.342Z,300954.38
2022-11-12T12:36:20.319Z,300954.38
2022-11-12T12:37:20.322Z,300954.38
2022-11-12T12:38:20.279Z,300954.38
2022-11-12T12:39:20.260Z,300954.38
2022-11-12T12:40:20.332Z,300954.38
2022-11-12T12:41:20.240Z,300954.38
2022-11-12T12:42:20.229Z,300954.38
2022-11-12T12:43:20.197Z,300954.38
2022-11-12T12:44:20.175Z,300954.38
2022-11-12T12:45:20.161Z,300954.38
2022-11-12T12:46:20.135Z,300954.38
2022-11-12T12:47:20.130Z,300954.38
2022-11-12T12:48:20.099Z,300954.38
2022-11-12T12:49:20.091Z,300954.38
2022-11-12T12:50:20.068Z,300954.38
2022-11-12T12:51:20.042Z,300954.38
2022-11-12T12:52:20.037Z,300954.38
2022-11-12T12:53:20.009Z,300954.38
2022-11-12T12:54:19.992Z,300954.38
2022-11-12T12:55:19.992Z,300954.38
2022-11-12T12:56:20.028Z,300954.38
2022-11-12T12:57:19.968Z,300954.38
2022-11-12T12:58:19.921Z,300954.38
2022-11-12T12:59:19.945Z,300954.38
2022-11-12T13:00:19.897Z,300954.38
2022-11-12T13:01:19.936Z,300954.38
2022-11-12T13:02:19.879Z,300954.38
2022-11-12T13:03:19.839Z,300954.38
2022-11-12T13:04:19.827Z,300954.38
2022-11-12T13:05:19.807Z,300954.38
2022-11-12T13:06:19.779Z,300954.38
2022-11-12T13:07:19.797Z,300954.38
2022-11-12T13:08:19.771Z,300954.38
2022-11-12T13:09:19.736Z,300954.38
2022-11-12T13:10:19.711Z,300954.38
2022-11-12T13:11:19.692Z,300954.38
2022-11-12T13:12:19.762Z,300954.38
2022-11-12T13:13:19.675Z,300954.38
2022-11-12T13:14:19.648Z,300954.38
2022-11-12T13:15:19.637Z,300954.38
2022-11-12T13:16:19.609Z,300954.38
2022-11-12T13:17:19.603Z,300954.38
2022-11-12T13:18:19.623Z,300954.38
2022-11-12T13:20:51.103Z,933.75
2022-11-12T13:21:51.080Z,793.13
2022-11-12T13:22:51.077Z,590.63
2022-11-12T13:23:51.061Z,478.13
2022-11-12T13:24:51.043Z,438.75
2022-11-12T13:25:51.024Z,421.88
2022-11-12T13:26:50.998Z,405.00
2022-11-12T13:27:51.063Z,405.00
2022-11-12T13:28:50.990Z,399.38
2022-11-12T13:29:50.951Z,438.75
2022-11-12T13:30:50.930Z,433.13
2022-11-12T13:31:50.922Z,416.25
2022-11-12T13:32:50.898Z,433.13
2022-11-12T13:33:50.879Z,455.63
2022-11-12T13:34:50.893Z,568.13
2022-11-12T13:35:50.854Z,720.00
2022-11-12T13:36:50.842Z,579.38
2022-11-12T13:37:50.814Z,421.88
2022-11-12T13:38:50.798Z,388.13
2022-11-12T13:39:50.793Z,382.50
2022-11-12T13:40:50.765Z,382.50
2022-11-12T13:41:50.747Z,382.50
